sensor_id;sensor_type;location;lat;lon;timestamp;pressure;altitude;pressure_sealevel;temperature;humidity
73338;BME280;61575;49.908;35.556;2023-06-24T00:00:17;98891.41;;;20.73;75.96
73338;BME280;61575;49.908;35.556;2023-06-24T00:03:21;98905.06;;;20.73;76.22
73338;BME280;61575;49.908;35.556;2023-06-24T00:06:23;98898.94;;;20.66;76.97
73338;BME280;61575;49.908;35.556;2023-06-24T00:09:27;98898.69;;;20.68;76.32
73338;BME280;61575;49.908;35.556;2023-06-24T00:12:29;98894.88;;;20.69;76.39
73338;BME280;61575;49.908;35.556;2023-06-24T00:15:31;98897.63;;;20.69;76.73
73338;BME280;61575;49.908;35.556;2023-06-24T00:18:34;98894.63;;;20.70;76.97
73338;BME280;61575;49.908;35.556;2023-06-24T00:21:36;98889.44;;;20.69;76.89
73338;BME280;61575;49.908;35.556;2023-06-24T00:24:39;98879.59;;;20.68;76.92
73338;BME280;61575;49.908;35.556;2023-06-24T00:27:41;98892.66;;;20.66;77.14
73338;BME280;61575;49.908;35.556;2023-06-24T00:30:45;98880.75;;;20.72;77.57
73338;BME280;61575;49.908;35.556;2023-06-24T00:33:47;98885.69;;;20.75;77.54
73338;BME280;61575;49.908;35.556;2023-06-24T00:36:51;98889.56;;;20.79;77.49
73338;BME280;61575;49.908;35.556;2023-06-24T00:39:53;98889.31;;;20.80;77.21
73338;BME280;61575;49.908;35.556;2023-06-24T00:42:55;98879.81;;;20.83;77.61
73338;BME280;61575;49.908;35.556;2023-06-24T00:45:58;98868.63;;;20.84;77.34
73338;BME280;61575;49.908;35.556;2023-06-24T00:49:00;98870.22;;;20.80;77.57
73338;BME280;61575;49.908;35.556;2023-06-24T00:52:05;98870.16;;;20.75;77.37
73338;BME280;61575;49.908;35.556;2023-06-24T00:55:07;98873.06;;;20.69;78.42
73338;BME280;61575;49.908;35.556;2023-06-24T00:58:09;98869.50;;;20.68;77.96
73338;BME280;61575;49.908;35.556;2023-06-24T01:01:11;98863.72;;;20.65;77.43
73338;BME280;61575;49.908;35.556;2023-06-24T01:04:13;98862.00;;;20.59;78.54
73338;BME280;61575;49.908;35.556;2023-06-24T01:07:15;98853.25;;;20.56;77.51
73338;BME280;61575;49.908;35.556;2023-06-24T01:10:18;98856.06;;;20.45;78.17
73338;BME280;61575;49.908;35.556;2023-06-24T01:13:21;98860.63;;;20.39;77.90
73338;BME280;61575;49.908;35.556;2023-06-24T01:29:52;98889.50;;;20.07;79.47
73338;BME280;61575;49.908;35.556;2023-06-24T01:33:00;98903.88;;;20.02;79.58
73338;BME280;61575;49.908;35.556;2023-06-24T01:36:08;98905.78;;;20.02;79.61
73338;BME280;61575;49.908;35.556;2023-06-24T01:39:16;98903.56;;;19.99;79.78
73338;BME280;61575;49.908;35.556;2023-06-24T01:42:21;98916.59;;;19.97;80.46
73338;BME280;61575;49.908;35.556;2023-06-24T01:45:32;98907.34;;;19.98;80.17
73338;BME280;61575;49.908;35.556;2023-06-24T01:48:38;98907.34;;;19.98;80.02
73338;BME280;61575;49.908;35.556;2023-06-24T01:51:44;98902.97;;;19.97;80.14
73338;BME280;61575;49.908;35.556;2023-06-24T01:54:50;98893.97;;;19.96;80.34
73338;BME280;61575;49.908;35.556;2023-06-24T01:57:55;98893.72;;;19.98;79.81
73338;BME280;61575;49.908;35.556;2023-06-24T02:00:59;98900.25;;;19.97;80.08
73338;BME280;61575;49.908;35.556;2023-06-24T02:04:03;98898.34;;;19.97;80.09
73338;BME280;61575;49.908;35.556;2023-06-24T02:07:08;98904.88;;;19.96;80.77
73338;BME280;61575;49.908;35.556;2023-06-24T02:10:12;98905.69;;;19.97;80.60
73338;BME280;61575;49.908;35.556;2023-06-24T02:13:15;98900.25;;;19.97;80.69
73338;BME280;61575;49.908;35.556;2023-06-24T02:16:20;98895.38;;;19.99;80.79
73338;BME280;61575;49.908;35.556;2023-06-24T02:19:29;98899.41;;;19.96;80.77
73338;BME280;61575;49.908;35.556;2023-06-24T02:22:32;98909.75;;;19.94;80.71
73338;BME280;61575;49.908;35.556;2023-06-24T02:25:34;98912.47;;;19.94;81.26
73338;BME280;61575;49.908;35.556;2023-06-24T02:28:40;98912.78;;;19.98;80.68
73338;BME280;61575;49.908;35.556;2023-06-24T02:31:43;98905.19;;;20.00;81.04
73338;BME280;61575;49.908;35.556;2023-06-24T02:34:46;98909.34;;;20.02;80.97
73338;BME280;61575;49.908;35.556;2023-06-24T02:37:48;98905.53;;;20.03;81.01
73338;BME280;61575;49.908;35.556;2023-06-24T02:40:51;98908.34;;;20.08;81.07
73338;BME280;61575;49.908;35.556;2023-06-24T02:43:53;98899.47;;;20.13;81.34
73338;BME280;61575;49.908;35.556;2023-06-24T02:46:55;98894.59;;;20.15;81.17
73338;BME280;61575;49.908;35.556;2023-06-24T02:49:58;98891.38;;;20.18;81.14
73338;BME280;61575;49.908;35.556;2023-06-24T02:53:01;98893.84;;;20.19;81.24
73338;BME280;61575;49.908;35.556;2023-06-24T02:56:10;98898.56;;;20.24;81.46
73338;BME280;61575;49.908;35.556;2023-06-24T02:59:17;98900.78;;;20.27;81.49
73338;BME280;61575;49.908;35.556;2023-06-24T03:02:24;98898.97;;;20.33;81.22
73338;BME280;61575;49.908;35.556;2023-06-24T03:05:26;98890.63;;;20.39;81.26
73338;BME280;61575;49.908;35.556;2023-06-24T03:08:29;98894.59;;;20.48;81.21
73338;BME280;61575;49.908;35.556;2023-06-24T03:11:40;98897.47;;;20.59;81.65
73338;BME280;61575;49.908;35.556;2023-06-24T03:14:43;98905.56;;;20.70;81.82
73338;BME280;61575;49.908;35.556;2023-06-24T03:17:45;98904.38;;;20.83;81.56
73338;BME280;61575;49.908;35.556;2023-06-24T03:20:47;98909.00;;;20.99;80.99
73338;BME280;61575;49.908;35.556;2023-06-24T03:23:53;98915.47;;;21.15;80.17
73338;BME280;61575;49.908;35.556;2023-06-24T03:26:55;98911.56;;;21.28;80.90
73338;BME280;61575;49.908;35.556;2023-06-24T03:30:05;98920.25;;;21.46;78.66
73338;BME280;61575;49.908;35.556;2023-06-24T03:33:10;98914.97;;;21.62;77.89
73338;BME280;61575;49.908;35.556;2023-06-24T03:36:12;98919.28;;;21.79;77.14
73338;BME280;61575;49.908;35.556;2023-06-24T03:39:14;98916.75;;;22.00;76.65
73338;BME280;61575;49.908;35.556;2023-06-24T03:42:17;98915.81;;;22.16;75.88
73338;BME280;61575;49.908;35.556;2023-06-24T03:45:18;98919.50;;;22.32;75.19
73338;BME280;61575;49.908;35.556;2023-06-24T03:48:20;98924.91;;;22.54;74.72
73338;BME280;61575;49.908;35.556;2023-06-24T03:51:22;98928.91;;;22.78;74.06
73338;BME280;61575;49.908;35.556;2023-06-24T03:54:24;98923.59;;;23.03;73.06
73338;BME280;61575;49.908;35.556;2023-06-24T03:57:26;98923.19;;;23.27;72.49
73338;BME280;61575;49.908;35.556;2023-06-24T04:00:28;98917.00;;;23.52;71.56
73338;BME280;61575;49.908;35.556;2023-06-24T04:03:30;98921.72;;;23.82;70.52
73338;BME280;61575;49.908;35.556;2023-06-24T04:06:34;98922.91;;;24.11;69.78
73338;BME280;61575;49.908;35.556;2023-06-24T04:09:36;98923.47;;;24.38;68.36
73338;BME280;61575;49.908;35.556;2023-06-24T04:12:38;98923.50;;;24.64;67.86
73338;BME280;61575;49.908;35.556;2023-06-24T04:15:40;98925.88;;;24.91;66.64
73338;BME280;61575;49.908;35.556;2023-06-24T04:18:42;98931.09;;;25.02;64.71
73338;BME280;61575;49.908;35.556;2023-06-24T04:21:44;98935.72;;;25.17;65.03
73338;BME280;61575;49.908;35.556;2023-06-24T04:24:46;98933.25;;;25.26;62.46
73338;BME280;61575;49.908;35.556;2023-06-24T04:27:48;98936.75;;;25.47;63.08
73338;BME280;61575;49.908;35.556;2023-06-24T04:30:51;98940.75;;;25.69;62.56
73338;BME280;61575;49.908;35.556;2023-06-24T04:33:54;98947.56;;;25.82;61.53
73338;BME280;61575;49.908;35.556;2023-06-24T04:36:55;98949.66;;;26.06;61.11
73338;BME280;61575;49.908;35.556;2023-06-24T04:39:57;98946.72;;;26.31;60.57
73338;BME280;61575;49.908;35.556;2023-06-24T04:42:59;98955.41;;;26.53;60.11
73338;BME280;61575;49.908;35.556;2023-06-24T04:46:01;98947.97;;;26.83;59.81
73338;BME280;61575;49.908;35.556;2023-06-24T04:49:03;98949.34;;;27.09;59.18
73338;BME280;61575;49.908;35.556;2023-06-24T04:52:06;98936.72;;;27.32;58.30
73338;BME280;61575;49.908;35.556;2023-06-24T04:55:08;98938.88;;;27.59;57.82
73338;BME280;61575;49.908;35.556;2023-06-24T04:58:10;98941.63;;;27.83;56.47
73338;BME280;61575;49.908;35.556;2023-06-24T05:01:12;98942.06;;;28.09;55.81
73338;BME280;61575;49.908;35.556;2023-06-24T05:04:14;98933.84;;;28.22;56.19
73338;BME280;61575;49.908;35.556;2023-06-24T05:07:15;98935.28;;;28.39;55.55
73338;BME280;61575;49.908;35.556;2023-06-24T05:10:17;98943.22;;;28.59;54.99
73338;BME280;61575;49.908;35.556;2023-06-24T05:13:19;98945.13;;;28.77;54.43
73338;BME280;61575;49.908;35.556;2023-06-24T05:16:21;98937.72;;;28.92;53.43
73338;BME280;61575;49.908;35.556;2023-06-24T05:19:25;98936.59;;;29.06;52.99
73338;BME280;61575;49.908;35.556;2023-06-24T05:22:27;98940.50;;;29.19;52.41
73338;BME280;61575;49.908;35.556;2023-06-24T05:25:29;98938.06;;;29.31;52.40
73338;BME280;61575;49.908;35.556;2023-06-24T05:28:31;98938.47;;;29.38;51.94
73338;BME280;61575;49.908;35.556;2023-06-24T05:31:33;98931.53;;;29.55;52.19
73338;BME280;61575;49.908;35.556;2023-06-24T05:34:34;98932.94;;;29.66;50.79
73338;BME280;61575;49.908;35.556;2023-06-24T05:37:36;98937.06;;;29.55;50.67
73338;BME280;61575;49.908;35.556;2023-06-24T05:40:38;98924.63;;;29.66;50.37
73338;BME280;61575;49.908;35.556;2023-06-24T05:43:42;98923.28;;;29.77;50.30
73338;BME280;61575;49.908;35.556;2023-06-24T05:46:45;98922.31;;;30.09;50.73
73338;BME280;61575;49.908;35.556;2023-06-24T05:49:47;98929.28;;;30.29;50.04
73338;BME280;61575;49.908;35.556;2023-06-24T05:52:49;98936.06;;;30.23;48.85
73338;BME280;61575;49.908;35.556;2023-06-24T05:55:51;98939.03;;;30.48;48.33
73338;BME280;61575;49.908;35.556;2023-06-24T05:58:53;98932.06;;;30.51;46.76
73338;BME280;61575;49.908;35.556;2023-06-24T06:01:54;98936.31;;;30.12;45.99
73338;BME280;61575;49.908;35.556;2023-06-24T06:04:56;98933.81;;;30.47;47.02
73338;BME280;61575;49.908;35.556;2023-06-24T06:07:58;98933.56;;;30.57;46.17
73338;BME280;61575;49.908;35.556;2023-06-24T06:11:00;98935.72;;;30.83;46.12
73338;BME280;61575;49.908;35.556;2023-06-24T06:14:05;98934.66;;;31.01;46.28
73338;BME280;61575;49.908;35.556;2023-06-24T06:17:07;98927.94;;;31.24;46.01
73338;BME280;61575;49.908;35.556;2023-06-24T06:20:09;98938.13;;;31.37;45.44
73338;BME280;61575;49.908;35.556;2023-06-24T06:23:11;98937.63;;;31.04;43.35
73338;BME280;61575;49.908;35.556;2023-06-24T06:26:13;98945.41;;;30.94;44.88
73338;BME280;61575;49.908;35.556;2023-06-24T06:29:15;98944.81;;;31.05;44.81
73338;BME280;61575;49.908;35.556;2023-06-24T06:32:17;98944.81;;;31.05;44.05
73338;BME280;61575;49.908;35.556;2023-06-24T06:35:19;98944.19;;;31.48;43.49
73338;BME280;61575;49.908;35.556;2023-06-24T06:38:21;98952.47;;;31.79;42.81
73338;BME280;61575;49.908;35.556;2023-06-24T06:41:23;98936.34;;;32.16;41.65
73338;BME280;61575;49.908;35.556;2023-06-24T06:44:27;98944.03;;;32.45;41.73
73338;BME280;61575;49.908;35.556;2023-06-24T06:47:29;98945.50;;;32.42;41.06
73338;BME280;61575;49.908;35.556;2023-06-24T06:50:31;98946.16;;;32.22;41.40
73338;BME280;61575;49.908;35.556;2023-06-24T06:53:33;98946.81;;;32.19;40.93
73338;BME280;61575;49.908;35.556;2023-06-24T06:56:35;98950.59;;;32.23;40.44
73338;BME280;61575;49.908;35.556;2023-06-24T06:59:37;98950.75;;;32.26;40.51
73338;BME280;61575;49.908;35.556;2023-06-24T07:02:39;98955.78;;;32.16;41.06
73338;BME280;61575;49.908;35.556;2023-06-24T07:05:41;98949.28;;;32.20;41.08
73338;BME280;61575;49.908;35.556;2023-06-24T07:08:43;98953.00;;;32.16;41.30
73338;BME280;61575;49.908;35.556;2023-06-24T07:11:45;98951.84;;;31.99;39.83
73338;BME280;61575;49.908;35.556;2023-06-24T07:14:47;98960.34;;;31.94;40.26
73338;BME280;61575;49.908;35.556;2023-06-24T07:17:49;98958.50;;;31.81;40.00
73338;BME280;61575;49.908;35.556;2023-06-24T07:20:53;98954.91;;;31.72;40.00
73338;BME280;61575;49.908;35.556;2023-06-24T07:23:55;98955.34;;;31.65;40.56
73338;BME280;61575;49.908;35.556;2023-06-24T07:26:56;98956.09;;;31.49;40.23
73338;BME280;61575;49.908;35.556;2023-06-24T07:29:58;98958.06;;;31.48;40.49
73338;BME280;61575;49.908;35.556;2023-06-24T07:33:00;98948.72;;;31.35;40.55
73338;BME280;61575;49.908;35.556;2023-06-24T07:36:07;98943.94;;;31.27;41.09
73338;BME280;61575;49.908;35.556;2023-06-24T07:39:12;98948.50;;;31.23;40.82
73338;BME280;61575;49.908;35.556;2023-06-24T07:42:14;98947.13;;;31.12;40.54
73338;BME280;61575;49.908;35.556;2023-06-24T07:45:20;98951.03;;;31.11;41.10
73338;BME280;61575;49.908;35.556;2023-06-24T07:48:23;98957.22;;;31.08;40.98
73338;BME280;61575;49.908;35.556;2023-06-24T07:51:24;98959.88;;;31.13;41.09
73338;BME280;61575;49.908;35.556;2023-06-24T07:54:26;98954.50;;;31.17;40.91
73338;BME280;61575;49.908;35.556;2023-06-24T07:57:29;98960.31;;;31.37;41.27
73338;BME280;61575;49.908;35.556;2023-06-24T08:00:31;98953.34;;;31.49;40.62
73338;BME280;61575;49.908;35.556;2023-06-24T08:03:33;98959.97;;;31.70;40.73
73338;BME280;61575;49.908;35.556;2023-06-24T08:06:36;98957.50;;;31.68;40.80
73338;BME280;61575;49.908;35.556;2023-06-24T08:09:38;98955.81;;;31.59;40.18
73338;BME280;61575;49.908;35.556;2023-06-24T08:12:40;98951.06;;;31.51;40.57
73338;BME280;61575;49.908;35.556;2023-06-24T08:15:41;98948.16;;;31.64;40.49
73338;BME280;61575;49.908;35.556;2023-06-24T08:18:44;98958.84;;;31.88;40.98
73338;BME280;61575;49.908;35.556;2023-06-24T08:21:45;98946.47;;;32.12;40.13
73338;BME280;61575;49.908;35.556;2023-06-24T08:24:47;98957.25;;;32.13;39.92
73338;BME280;61575;49.908;35.556;2023-06-24T08:27:49;98954.00;;;32.20;39.78
73338;BME280;61575;49.908;35.556;2023-06-24T08:30:51;98957.75;;;32.15;39.60
73338;BME280;61575;49.908;35.556;2023-06-24T08:33:53;98949.06;;;32.17;39.85
73338;BME280;61575;49.908;35.556;2023-06-24T08:36:58;98962.16;;;32.59;38.90
73338;BME280;61575;49.908;35.556;2023-06-24T08:39:59;98949.41;;;32.84;38.77
73338;BME280;61575;49.908;35.556;2023-06-24T08:43:01;98952.88;;;33.19;38.14
73338;BME280;61575;49.908;35.556;2023-06-24T08:46:03;98953.06;;;33.23;37.17
73338;BME280;61575;49.908;35.556;2023-06-24T08:49:16;98960.59;;;33.14;36.94
73338;BME280;61575;49.908;35.556;2023-06-24T08:52:20;98953.34;;;32.75;37.52
73338;BME280;61575;49.908;35.556;2023-06-24T08:55:24;98957.63;;;33.19;36.56
73338;BME280;61575;49.908;35.556;2023-06-24T08:58:29;98963.34;;;33.31;36.66
73338;BME280;61575;49.908;35.556;2023-06-24T09:01:31;98955.53;;;33.16;37.08
73338;BME280;61575;49.908;35.556;2023-06-24T09:04:34;98953.56;;;33.25;37.42
73338;BME280;61575;49.908;35.556;2023-06-24T09:07:36;98959.44;;;33.23;35.97
73338;BME280;61575;49.908;35.556;2023-06-24T09:10:38;98950.53;;;33.77;35.90
73338;BME280;61575;49.908;35.556;2023-06-24T09:13:40;98947.63;;;33.94;34.58
73338;BME280;61575;49.908;35.556;2023-06-24T09:16:51;98948.22;;;34.29;33.97
73338;BME280;61575;49.908;35.556;2023-06-24T09:19:53;98950.41;;;33.94;33.98
73338;BME280;61575;49.908;35.556;2023-06-24T09:23:02;98945.97;;;34.22;34.57
73338;BME280;61575;49.908;35.556;2023-06-24T09:26:05;98949.00;;;34.09;34.67
73338;BME280;61575;49.908;35.556;2023-06-24T09:29:07;98936.16;;;34.37;33.77
73338;BME280;61575;49.908;35.556;2023-06-24T09:32:10;98929.41;;;34.59;33.96
73338;BME280;61575;49.908;35.556;2023-06-24T09:35:13;98936.09;;;34.46;34.05
73338;BME280;61575;49.908;35.556;2023-06-24T09:38:32;98931.78;;;33.86;34.83
73338;BME280;61575;49.908;35.556;2023-06-24T09:41:34;98925.47;;;34.18;35.15
73338;BME280;61575;49.908;35.556;2023-06-24T09:44:35;98935.28;;;34.24;33.11
73338;BME280;61575;49.908;35.556;2023-06-24T09:47:37;98941.06;;;34.40;33.69
73338;BME280;61575;49.908;35.556;2023-06-24T09:50:39;98934.88;;;34.68;33.99
73338;BME280;61575;49.908;35.556;2023-06-24T09:53:42;98939.50;;;34.31;32.83
73338;BME280;61575;49.908;35.556;2023-06-24T09:56:48;98945.09;;;34.64;32.52
73338;BME280;61575;49.908;35.556;2023-06-24T09:59:50;98952.81;;;35.12;32.53
73338;BME280;61575;49.908;35.556;2023-06-24T10:02:53;98933.34;;;34.91;32.08
73338;BME280;61575;49.908;35.556;2023-06-24T10:05:59;98939.84;;;34.83;31.92
73338;BME280;61575;49.908;35.556;2023-06-24T10:09:01;98948.66;;;34.10;32.43
73338;BME280;61575;49.908;35.556;2023-06-24T10:12:04;98949.13;;;33.15;33.00
73338;BME280;61575;49.908;35.556;2023-06-24T10:15:06;98950.25;;;32.42;34.03
73338;BME280;61575;49.908;35.556;2023-06-24T10:18:37;98955.28;;;32.14;34.65
73338;BME280;61575;49.908;35.556;2023-06-24T10:21:57;98955.06;;;31.76;35.23
73338;BME280;61575;49.908;35.556;2023-06-24T10:25:00;98954.63;;;32.08;35.54
73338;BME280;61575;49.908;35.556;2023-06-24T10:28:03;98949.44;;;32.24;35.97
73338;BME280;61575;49.908;35.556;2023-06-24T10:31:05;98942.41;;;32.26;36.09
73338;BME280;61575;49.908;35.556;2023-06-24T10:37:30;98934.03;;;32.09;37.23
73338;BME280;61575;49.908;35.556;2023-06-24T10:40:42;98930.94;;;32.11;37.94
73338;BME280;61575;49.908;35.556;2023-06-24T10:43:44;98937.34;;;32.20;36.54
73338;BME280;61575;49.908;35.556;2023-06-24T10:46:53;98935.38;;;32.29;36.10
73338;BME280;61575;49.908;35.556;2023-06-24T10:49:56;98938.66;;;32.31;36.45
73338;BME280;61575;49.908;35.556;2023-06-24T10:52:58;98934.72;;;32.23;36.69
73338;BME280;61575;49.908;35.556;2023-06-24T10:56:01;98931.09;;;32.05;36.25
73338;BME280;61575;49.908;35.556;2023-06-24T10:59:03;98927.19;;;32.32;36.44
73338;BME280;61575;49.908;35.556;2023-06-24T11:02:05;98923.06;;;32.64;36.21
73338;BME280;61575;49.908;35.556;2023-06-24T11:05:07;98922.25;;;32.81;36.23
73338;BME280;61575;49.908;35.556;2023-06-24T11:08:10;98917.66;;;32.68;34.92
73338;BME280;61575;49.908;35.556;2023-06-24T11:11:18;98910.81;;;32.57;35.13
73338;BME280;61575;49.908;35.556;2023-06-24T11:14:21;98907.00;;;32.87;35.81
73338;BME280;61575;49.908;35.556;2023-06-24T11:17:23;98900.00;;;33.28;35.08
73338;BME280;61575;49.908;35.556;2023-06-24T11:20:25;98905.50;;;33.66;34.73
73338;BME280;61575;49.908;35.556;2023-06-24T11:23:27;98905.91;;;33.85;34.75
73338;BME280;61575;49.908;35.556;2023-06-24T11:26:29;98906.84;;;33.89;34.24
73338;BME280;61575;49.908;35.556;2023-06-24T11:29:32;98898.44;;;33.69;34.39
73338;BME280;61575;49.908;35.556;2023-06-24T11:32:38;98902.94;;;33.31;33.98
73338;BME280;61575;49.908;35.556;2023-06-24T11:35:40;98904.81;;;33.10;34.75
73338;BME280;61575;49.908;35.556;2023-06-24T11:38:43;98901.41;;;32.96;35.54
73338;BME280;61575;49.908;35.556;2023-06-24T11:41:45;98896.41;;;32.81;35.71
73338;BME280;61575;49.908;35.556;2023-06-24T11:44:46;98890.84;;;32.63;34.93
73338;BME280;61575;49.908;35.556;2023-06-24T11:47:48;98882.38;;;32.51;34.19
73338;BME280;61575;49.908;35.556;2023-06-24T11:50:53;98888.25;;;32.76;33.69
73338;BME280;61575;49.908;35.556;2023-06-24T11:54:00;98893.56;;;32.98;33.69
73338;BME280;61575;49.908;35.556;2023-06-24T11:57:02;98882.63;;;32.93;32.77
73338;BME280;61575;49.908;35.556;2023-06-24T12:00:12;98881.34;;;32.82;33.80
73338;BME280;61575;49.908;35.556;2023-06-24T12:03:14;98868.44;;;32.68;33.81
73338;BME280;61575;49.908;35.556;2023-06-24T12:06:17;98868.34;;;32.30;34.69
73338;BME280;61575;49.908;35.556;2023-06-24T12:09:18;98866.72;;;31.95;34.16
73338;BME280;61575;49.908;35.556;2023-06-24T12:12:20;98858.06;;;32.14;35.52
73338;BME280;61575;49.908;35.556;2023-06-24T12:15:22;98857.88;;;32.36;36.77
73338;BME280;61575;49.908;35.556;2023-06-24T12:18:24;98864.25;;;32.45;36.88
73338;BME280;61575;49.908;35.556;2023-06-24T12:21:26;98860.16;;;32.43;36.66
73338;BME280;61575;49.908;35.556;2023-06-24T12:24:28;98858.03;;;32.40;35.86
73338;BME280;61575;49.908;35.556;2023-06-24T12:27:30;98858.19;;;32.43;35.60
73338;BME280;61575;49.908;35.556;2023-06-24T12:30:32;98861.25;;;32.76;35.51
73338;BME280;61575;49.908;35.556;2023-06-24T12:33:34;98864.69;;;32.64;35.46
73338;BME280;61575;49.908;35.556;2023-06-24T12:36:36;98853.59;;;32.47;35.25
73338;BME280;61575;49.908;35.556;2023-06-24T12:39:38;98849.38;;;32.15;35.33
73338;BME280;61575;49.908;35.556;2023-06-24T12:42:40;98852.34;;;32.10;35.39
73338;BME280;61575;49.908;35.556;2023-06-24T12:45:42;98850.69;;;32.09;35.49
73338;BME280;61575;49.908;35.556;2023-06-24T12:48:46;98855.94;;;32.11;35.42
73338;BME280;61575;49.908;35.556;2023-06-24T12:51:48;98859.34;;;32.16;35.59
73338;BME280;61575;49.908;35.556;2023-06-24T12:54:50;98858.72;;;32.28;35.65
73338;BME280;61575;49.908;35.556;2023-06-24T12:57:52;98850.53;;;32.31;35.78
73338;BME280;61575;49.908;35.556;2023-06-24T13:00:54;98860.34;;;31.86;35.32
73338;BME280;61575;49.908;35.556;2023-06-24T13:03:56;98858.72;;;32.02;35.09
73338;BME280;61575;49.908;35.556;2023-06-24T13:06:58;98864.09;;;31.98;35.15
73338;BME280;61575;49.908;35.556;2023-06-24T13:10:00;98860.19;;;32.08;35.73
73338;BME280;61575;49.908;35.556;2023-06-24T13:13:03;98858.22;;;32.00;35.14
73338;BME280;61575;49.908;35.556;2023-06-24T13:16:05;98858.88;;;31.71;35.55
73338;BME280;61575;49.908;35.556;2023-06-24T13:19:07;98859.53;;;31.85;36.01
73338;BME280;61575;49.908;35.556;2023-06-24T13:22:09;98856.75;;;31.85;35.88
73338;BME280;61575;49.908;35.556;2023-06-24T13:25:11;98854.63;;;31.82;36.85
73338;BME280;61575;49.908;35.556;2023-06-24T13:28:15;98856.75;;;31.85;36.77
73338;BME280;61575;49.908;35.556;2023-06-24T13:31:17;98860.19;;;31.82;36.53
73338;BME280;61575;49.908;35.556;2023-06-24T13:34:18;98858.88;;;31.71;37.29
73338;BME280;61575;49.908;35.556;2023-06-24T13:37:20;98858.81;;;31.54;37.29
73338;BME280;61575;49.908;35.556;2023-06-24T13:40:22;98868.44;;;31.48;37.34
73338;BME280;61575;49.908;35.556;2023-06-24T13:43:24;98860.59;;;31.50;37.23
73338;BME280;61575;49.908;35.556;2023-06-24T13:46:27;98853.91;;;31.51;37.29
73338;BME280;61575;49.908;35.556;2023-06-24T13:49:29;98859.44;;;31.33;36.41
73338;BME280;61575;49.908;35.556;2023-06-24T13:52:31;98865.16;;;31.37;36.81
73338;BME280;61575;49.908;35.556;2023-06-24T13:55:33;98857.78;;;31.32;36.79
73338;BME280;61575;49.908;35.556;2023-06-24T13:58:37;98862.50;;;31.23;36.45
73338;BME280;61575;49.908;35.556;2023-06-24T14:01:39;98866.69;;;31.12;38.54
73338;BME280;61575;49.908;35.556;2023-06-24T14:04:41;98859.84;;;30.78;41.86
73338;BME280;61575;49.908;35.556;2023-06-24T14:07:43;98858.31;;;30.64;43.11
73338;BME280;61575;49.908;35.556;2023-06-24T14:10:45;98862.84;;;30.60;43.39
73338;BME280;61575;49.908;35.556;2023-06-24T14:13:47;98863.03;;;30.41;44.52
73338;BME280;61575;49.908;35.556;2023-06-24T14:16:49;98858.53;;;30.23;45.09
73338;BME280;61575;49.908;35.556;2023-06-24T14:19:51;98854.56;;;30.15;45.69
73338;BME280;61575;49.908;35.556;2023-06-24T14:22:53;98862.41;;;29.99;46.12
73338;BME280;61575;49.908;35.556;2023-06-24T14:25:56;98858.75;;;29.54;46.79
73338;BME280;61575;49.908;35.556;2023-06-24T14:28:58;98864.50;;;29.30;46.05
73338;BME280;61575;49.908;35.556;2023-06-24T14:32:00;98874.13;;;29.19;46.11
73338;BME280;61575;49.908;35.556;2023-06-24T14:35:02;98870.25;;;29.06;45.98
73338;BME280;61575;49.908;35.556;2023-06-24T14:38:04;98864.56;;;28.84;46.73
73338;BME280;61575;49.908;35.556;2023-06-24T14:41:06;98872.75;;;28.75;46.95
73338;BME280;61575;49.908;35.556;2023-06-24T14:44:09;98866.53;;;28.37;48.13
73338;BME280;61575;49.908;35.556;2023-06-24T14:47:11;98879.88;;;28.49;47.90
73338;BME280;61575;49.908;35.556;2023-06-24T14:50:13;98873.22;;;28.50;47.84
73338;BME280;61575;49.908;35.556;2023-06-24T14:53:15;98868.91;;;28.44;48.59
73338;BME280;61575;49.908;35.556;2023-06-24T14:56:17;98872.19;;;28.46;48.60
73338;BME280;61575;49.908;35.556;2023-06-24T14:59:19;98864.22;;;28.26;48.75
73338;BME280;61575;49.908;35.556;2023-06-24T15:02:21;98869.59;;;28.17;48.91
73338;BME280;61575;49.908;35.556;2023-06-24T15:05:23;98866.63;;;28.13;48.96
73338;BME280;61575;49.908;35.556;2023-06-24T15:08:25;98862.16;;;28.17;48.69
73338;BME280;61575;49.908;35.556;2023-06-24T15:11:28;98861.41;;;28.12;48.62
73338;BME280;61575;49.908;35.556;2023-06-24T15:14:30;98866.13;;;28.11;48.27
73338;BME280;61575;49.908;35.556;2023-06-24T15:17:31;98865.94;;;28.21;48.56
73338;BME280;61575;49.908;35.556;2023-06-24T15:20:36;98869.13;;;28.29;47.66
73338;BME280;61575;49.908;35.556;2023-06-24T15:23:38;98860.00;;;28.14;47.94
73338;BME280;61575;49.908;35.556;2023-06-24T15:26:40;98864.72;;;27.95;48.01
73338;BME280;61575;49.908;35.556;2023-06-24T15:29:42;98860.31;;;27.94;47.83
73338;BME280;61575;49.908;35.556;2023-06-24T15:32:44;98868.38;;;27.90;47.50
73338;BME280;61575;49.908;35.556;2023-06-24T15:35:48;98861.59;;;27.83;47.71
73338;BME280;61575;49.908;35.556;2023-06-24T15:38:49;98867.22;;;27.54;47.15
73338;BME280;61575;49.908;35.556;2023-06-24T15:41:51;98866.31;;;27.58;47.56
73338;BME280;61575;49.908;35.556;2023-06-24T15:44:53;98858.56;;;27.60;46.98
73338;BME280;61575;49.908;35.556;2023-06-24T15:47:55;98863.56;;;27.58;47.62
73338;BME280;61575;49.908;35.556;2023-06-24T15:50:57;98858.41;;;27.33;48.09
73338;BME280;61575;49.908;35.556;2023-06-24T15:54:01;98852.34;;;27.31;47.83
73338;BME280;61575;49.908;35.556;2023-06-24T15:57:02;98849.75;;;27.40;47.88
73338;BME280;61575;49.908;35.556;2023-06-24T16:00:05;98852.97;;;27.47;47.85
73338;BME280;61575;49.908;35.556;2023-06-24T16:03:07;98856.16;;;27.35;47.78
73338;BME280;61575;49.908;35.556;2023-06-24T16:06:09;98860.56;;;27.36;47.99
73338;BME280;61575;49.908;35.556;2023-06-24T16:09:10;98859.50;;;27.32;48.50
73338;BME280;61575;49.908;35.556;2023-06-24T16:12:12;98867.72;;;27.37;48.20